Time;durP1;ratioP1;P1;durP2;ratioP2;P2;SDS_P1;SDS_P2;PMS_P1;PMS_P2;Temp;Humidity;BMP_temperature;BMP_pressure;BME280_temperature;BME280_humidity;BME280_pressure;Samples;Min_cycle;Max_cycle;Signal;HPM_P1;HPM_P2
2021/04/29 00:01:13;;;;;;;12.37;9.23;;;;;;;11.35;69.21;96621.48;1730196;82;21116;-80
2021/04/29 00:03:44;;;;;;;12.63;9.13;;;;;;;11.29;68.89;96625.50;1709264;84;21277;-80
2021/04/29 00:06:12;;;;;;;16.75;9.58;;;;;;;11.27;68.88;96626.63;1685695;84;21149;-82
2021/04/29 00:08:39;;;;;;;14.15;7.95;;;;;;;11.25;69.07;96630.23;1712176;84;21285;-81
2021/04/29 00:11:09;;;;;;;10.23;7.90;;;;;;;11.21;69.04;96636.73;1711403;84;21710;-82
2021/04/29 00:13:38;;;;;;;12.33;7.60;;;;;;;11.19;68.89;96635.22;1709072;84;21273;-82
2021/04/29 00:16:05;;;;;;;6.87;5.50;;;;;;;11.19;68.86;96639.99;1711070;84;21118;-82
2021/04/29 00:18:48;;;;;;;6.40;5.78;;;;;;;11.20;69.05;96632.93;1711719;84;21237;-81
2021/04/29 00:21:19;;;;;;;10.08;6.17;;;;;;;11.15;69.24;96639.94;1711869;84;21108;-79
2021/04/29 00:23:46;;;;;;;8.55;6.25;;;;;;;11.12;69.41;96636.25;1683687;85;21209;-82
2021/04/29 00:26:14;;;;;;;12.90;8.30;;;;;;;11.12;69.45;96632.30;1683892;85;21130;-82
2021/04/29 00:28:53;;;;;;;8.55;7.25;;;;;;;11.13;69.18;96633.14;1704538;84;21827;-82
2021/04/29 00:31:28;;;;;;;11.18;7.85;;;;;;;11.14;68.91;96640.91;1709352;84;21290;-82
2021/04/29 00:34:05;;;;;;;9.20;7.50;;;;;;;11.11;69.04;96639.85;1709117;84;21195;-81
2021/04/29 00:36:32;;;;;;;10.38;7.67;;;;;;;11.09;68.83;96634.73;1712034;84;21249;-80
2021/04/29 00:38:59;;;;;;;12.07;8.45;;;;;;;11.06;68.92;96635.49;1709716;84;21569;-81
2021/04/29 00:41:27;;;;;;;10.35;7.47;;;;;;;11.06;68.87;96631.53;1710578;84;21289;-81
2021/04/29 00:43:58;;;;;;;9.73;7.47;;;;;;;11.04;68.82;96637.42;1712181;84;21269;-79
2021/04/29 00:46:28;;;;;;;11.48;7.70;;;;;;;11.01;68.90;96637.69;1710145;84;21187;-82
2021/04/29 00:48:56;;;;;;;10.80;7.60;;;;;;;11.01;68.83;96642.97;1709398;84;21738;-81
2021/04/29 00:51:24;;;;;;;10.43;6.30;;;;;;;11.01;69.19;96646.45;1709464;84;21266;-80
2021/04/29 00:53:52;;;;;;;8.28;7.20;;;;;;;11.04;69.05;96642.70;1701337;84;21179;-81
2021/04/29 00:56:25;;;;;;;11.48;7.00;;;;;;;11.04;69.13;96637.42;1699219;84;21137;-81
2021/04/29 00:58:54;;;;;;;9.70;6.70;;;;;;;11.05;69.21;96633.82;1726287;83;21676;-82
2021/04/29 01:01:24;;;;;;;7.97;6.95;;;;;;;11.09;69.27;96633.88;1727780;83;21139;-81
2021/04/29 01:03:59;;;;;;;10.75;7.37;;;;;;;11.08;69.30;96632.23;1710873;83;21151;-81
2021/04/29 01:06:36;;;;;;;11.12;7.05;;;;;;;11.05;69.34;96626.73;1712548;83;21151;-82
2021/04/29 01:09:17;;;;;;;10.88;8.38;;;;;;;10.99;69.38;96625.15;1710366;84;21302;-81
2021/04/29 01:11:50;;;;;;;12.05;8.58;;;;;;;10.91;69.46;96631.92;1698941;83;21155;-80
2021/04/29 01:14:18;;;;;;;11.63;8.35;;;;;;;10.87;69.57;96631.86;1727037;83;21190;-79
2021/04/29 01:16:46;;;;;;;11.28;7.58;;;;;;;10.85;69.50;96632.97;1712122;84;21154;-82
2021/04/29 01:19:16;;;;;;;11.10;8.20;;;;;;;10.81;69.77;96634.20;1699594;84;21632;-81
2021/04/29 01:21:45;;;;;;;11.10;8.00;;;;;;;10.78;70.71;96640.59;1707241;84;21269;-83
2021/04/29 01:24:23;;;;;;;12.75;8.05;;;;;;;10.76;70.08;96642.02;1673331;84;21298;-81
2021/04/29 01:27:02;;;;;;;10.00;7.92;;;;;;;10.74;69.96;96641.81;1698566;84;21151;-80
2021/04/29 01:29:32;;;;;;;9.50;7.45;;;;;;;10.76;70.49;96646.47;1709314;84;21131;-78
2021/04/29 01:32:01;;;;;;;12.20;8.55;;;;;;;10.75;70.29;96648.75;1704241;84;21306;-81
2021/04/29 01:34:35;;;;;;;10.98;7.75;;;;;;;10.78;70.49;96643.22;1709140;84;21169;-81
2021/04/29 01:37:08;;;;;;;9.70;7.58;;;;;;;10.81;70.34;96641.61;1709516;84;21301;-80
2021/04/29 01:39:50;;;;;;;11.83;7.60;;;;;;;10.91;71.30;96641.65;1781924;79;22966;-82
2021/04/29 01:42:22;;;;;;;10.20;7.85;;;;;;;10.88;70.42;96644.55;1749985;82;21253;-81
2021/04/29 01:44:56;;;;;;;16.32;7.20;;;;;;;10.94;70.27;96645.34;1698685;83;21231;-83
2021/04/29 01:47:32;;;;;;;10.58;7.45;;;;;;;10.95;70.38;96646.98;1727777;82;21258;-80
2021/04/29 01:50:24;;;;;;;9.78;7.25;;;;;;;11.01;70.43;96654.36;1715535;83;21112;-81
2021/04/29 01:52:54;;;;;;;12.45;7.28;;;;;;;11.03;70.32;96654.22;1754695;82;21132;-80
2021/04/29 01:55:27;;;;;;;7.53;5.33;;;;;;;10.97;70.11;96652.95;1755162;81;21131;-79
2021/04/29 01:57:57;;;;;;;14.60;6.90;;;;;;;10.95;70.49;96653.57;1726088;83;21257;-80
2021/04/29 02:00:30;;;;;;;13.55;7.70;;;;;;;10.82;71.06;96652.51;1747021;82;21093;-81
2021/04/29 02:03:03;;;;;;;10.08;6.10;;;;;;;10.66;71.45;96650.41;1724895;83;21161;-80
2021/04/29 02:05:34;;;;;;;10.88;7.10;;;;;;;10.57;71.55;96650.72;1726153;82;21270;-81
2021/04/29 02:08:17;;;;;;;11.78;7.28;;;;;;;10.50;71.77;96652.23;1726499;83;21259;-81
2021/04/29 02:10:48;;;;;;;9.45;7.05;;;;;;;10.46;72.02;96655.63;1727843;82;21167;-80
2021/04/29 02:13:18;;;;;;;10.68;7.55;;;;;;;10.44;71.76;96652.78;1681783;85;21357;-79
2021/04/29 02:15:56;;;;;;;12.60;8.35;;;;;;;10.43;72.36;96655.87;1696625;84;21176;-81
2021/04/29 02:18:30;;;;;;;10.15;7.10;;;;;;;10.42;72.00;96652.89;1681368;85;21336;-80
2021/04/29 02:21:25;;;;;;;10.58;7.10;;;;;;;10.47;71.93;96648.53;1681596;85;21305;-80
2021/04/29 02:23:58;;;;;;;11.63;7.45;;;;;;;10.48;71.96;96653.34;1668968;84;21239;-81
2021/04/29 02:26:25;;;;;;;12.30;8.30;;;;;;;10.47;71.92;96648.53;1691158;84;21250;-80
2021/04/29 02:28:55;;;;;;;12.35;8.33;;;;;;;10.54;71.98;96644.39;1708304;84;21748;-82
2021/04/29 02:31:26;;;;;;;10.45;7.70;;;;;;;10.64;71.90;96645.75;1709927;84;21155;-81
2021/04/29 02:33:55;;;;;;;11.20;7.85;;;;;;;10.70;71.91;96647.84;1709811;84;21168;-81
2021/04/29 02:36:25;;;;;;;14.87;8.30;;;;;;;10.70;71.81;96645.70;1699916;84;21212;-81
2021/04/29 02:38:56;;;;;;;12.47;7.92;;;;;;;10.72;71.66;96644.59;1722893;83;21191;-80
2021/04/29 02:41:28;;;;;;;11.45;9.18;;;;;;;10.75;71.39;96647.44;1728059;83;21119;-81
2021/04/29 02:43:56;;;;;;;12.13;9.08;;;;;;;10.78;71.43;96650.63;1697826;85;21258;-80
2021/04/29 02:46:28;;;;;;;14.80;8.85;;;;;;;10.84;71.27;96648.44;1703017;83;21266;-82
2021/04/29 02:49:01;;;;;;;13.30;8.93;;;;;;;10.81;71.03;96652.16;1671721;84;21301;-79
2021/04/29 02:51:43;;;;;;;13.00;8.40;;;;;;;10.77;71.02;96648.14;1696858;84;21262;-79
2021/04/29 02:54:13;;;;;;;14.50;7.97;;;;;;;10.67;71.13;96654.69;1697230;84;21131;-81
2021/04/29 02:56:44;;;;;;;12.65;9.13;;;;;;;10.65;71.19;96659.75;1698107;84;21328;-80
2021/04/29 02:59:13;;;;;;;11.63;8.38;;;;;;;10.61;71.16;96655.23;1697457;84;21134;-82
2021/04/29 03:01:49;;;;;;;12.30;7.53;;;;;;;10.58;71.35;96657.66;1722194;83;21138;-80
2021/04/29 03:04:18;;;;;;;8.40;6.67;;;;;;;10.57;71.66;96654.67;1669684;86;21187;-80
2021/04/29 03:06:50;;;;;;;10.20;7.33;;;;;;;10.52;72.01;96660.00;1565047;90;21202;-81
2021/04/29 03:09:20;;;;;;;13.70;8.53;;;;;;;10.41;71.98;96656.48;1607152;88;21274;-82
2021/04/29 03:12:05;;;;;;;11.73;8.73;;;;;;;10.43;72.60;96655.06;1758045;79;22968;-80
2021/04/29 03:14:33;;;;;;;12.95;8.23;;;;;;;10.41;71.90;96653.03;1732642;82;21159;-79
2021/04/29 03:17:02;;;;;;;17.30;9.03;;;;;;;10.45;71.89;96659.69;1756254;81;21143;-80
2021/04/29 03:19:30;;;;;;;9.75;8.18;;;;;;;10.50;71.82;96657.97;1744134;81;21104;-80
2021/04/29 03:21:57;;;;;;;13.65;9.75;;;;;;;10.53;72.17;96659.03;1755925;82;21151;-83
2021/04/29 03:24:37;;;;;;;12.40;8.30;;;;;;;10.53;72.69;96655.93;1740977;82;21135;-81
2021/04/29 03:27:06;;;;;;;11.68;8.40;;;;;;;10.54;72.16;96662.84;1744167;82;21140;-81
2021/04/29 03:29:34;;;;;;;19.17;9.43;;;;;;;10.60;71.98;96663.64;1730752;82;21147;-81
2021/04/29 03:32:01;;;;;;;14.53;10.10;;;;;;;10.66;71.86;96668.86;1694249;83;21166;-82
2021/04/29 03:34:29;;;;;;;13.60;8.85;;;;;;;10.72;71.72;96670.10;1687048;84;21156;-84
2021/04/29 03:36:59;;;;;;;16.15;9.68;;;;;;;10.78;71.72;96665.63;1686519;84;21181;-82
2021/04/29 03:39:26;;;;;;;13.43;10.08;;;;;;;10.85;71.37;96674.66;1694760;84;21187;-82
2021/04/29 03:41:54;;;;;;;15.05;10.70;;;;;;;10.89;71.38;96677.39;1687895;84;21159;-82
2021/04/29 03:44:23;;;;;;;14.93;9.83;;;;;;;10.93;71.23;96681.41;1686211;85;21168;-82
2021/04/29 03:46:51;;;;;;;13.75;9.15;;;;;;;10.99;71.17;96681.85;1686666;84;21163;-82
2021/04/29 03:49:19;;;;;;;13.80;11.30;;;;;;;11.04;70.90;96682.27;1724730;82;21685;-79
2021/04/29 03:51:47;;;;;;;14.85;10.20;;;;;;;11.04;70.91;96684.90;1735577;82;21165;-81
2021/04/29 03:54:14;;;;;;;14.35;10.82;;;;;;;11.06;71.18;96685.11;1745620;82;21143;-82
2021/04/29 03:56:42;;;;;;;18.45;10.65;;;;;;;11.14;71.23;96685.75;1745830;82;21113;-83
2021/04/29 03:59:09;;;;;;;15.75;10.30;;;;;;;11.23;71.01;96687.56;1744408;82;21124;-82
2021/04/29 04:01:36;;;;;;;17.77;11.78;;;;;;;11.32;71.01;96687.20;1723952;82;22027;-80
2021/04/29 04:04:04;;;;;;;17.27;10.80;;;;;;;11.41;70.96;96694.80;1728230;82;21165;-81
2021/04/29 04:06:31;;;;;;;12.68;8.90;;;;;;;11.50;70.74;96691.83;1722165;83;21163;-81
2021/04/29 04:08:58;;;;;;;13.80;9.08;;;;;;;11.57;70.54;96683.69;1719717;83;21093;-81
2021/04/29 04:11:26;;;;;;;10.88;9.28;;;;;;;11.63;70.80;96687.58;1709586;83;21626;-81
2021/04/29 04:13:55;;;;;;;12.00;9.95;;;;;;;11.69;70.66;96684.38;1685341;84;21246;-84
2021/04/29 04:16:29;;;;;;;18.92;10.58;;;;;;;11.75;70.56;96694.36;1708316;84;21310;-83
2021/04/29 04:18:57;;;;;;;15.65;12.15;;;;;;;11.79;70.45;96692.27;1704527;84;21129;-81
2021/04/29 04:21:25;;;;;;;18.80;10.80;;;;;;;11.85;70.32;96695.19;1698179;84;21562;-82
2021/04/29 04:23:55;;;;;;;15.53;10.50;;;;;;;11.92;70.17;96690.68;1684411;84;21141;-83
2021/04/29 04:26:23;;;;;;;27.60;12.63;;;;;;;11.96;70.13;96692.05;1711186;83;21153;-81
2021/04/29 04:28:50;;;;;;;15.48;11.15;;;;;;;12.01;70.08;96692.50;1708610;84;21172;-82
2021/04/29 04:31:17;;;;;;;16.67;9.83;;;;;;;12.02;70.08;96693.67;1703160;84;21554;-83
2021/04/29 04:33:45;;;;;;;15.30;9.65;;;;;;;12.06;70.01;96687.61;1703853;84;21162;-81
2021/04/29 04:36:12;;;;;;;14.95;9.60;;;;;;;12.14;70.03;96688.23;1699528;84;21692;-85
2021/04/29 04:38:39;;;;;;;16.25;10.03;;;;;;;12.22;70.05;96683.05;1711166;84;21155;-79
2021/04/29 04:41:06;;;;;;;11.68;9.90;;;;;;;12.30;70.02;96686.28;1709083;84;21144;-81
2021/04/29 04:43:33;;;;;;;13.50;9.83;;;;;;;12.41;69.94;96680.83;1687890;84;21151;-83
2021/04/29 04:46:01;;;;;;;12.75;9.03;;;;;;;12.54;69.84;96691.56;1638720;87;21623;-83
2021/04/29 04:48:28;;;;;;;15.72;9.50;;;;;;;12.63;69.77;96690.19;1646643;86;21135;-81
2021/04/29 04:50:56;;;;;;;17.17;9.83;;;;;;;12.70;69.55;96690.95;1659822;86;21304;-80
2021/04/29 04:53:24;;;;;;;17.30;9.23;;;;;;;12.80;69.42;96691.23;1677441;84;21631;-83
2021/04/29 04:55:51;;;;;;;15.98;9.30;;;;;;;12.96;69.27;96687.09;1687293;84;21141;-83
2021/04/29 04:58:19;;;;;;;13.43;10.50;;;;;;;13.12;69.00;96685.13;1617686;88;21605;-82
2021/04/29 05:00:50;;;;;;;18.98;10.23;;;;;;;13.25;68.72;96692.70;1654351;86;21167;-83
2021/04/29 05:03:17;;;;;;;13.22;9.68;;;;;;;13.41;68.38;96691.56;1645180;87;21152;-82
2021/04/29 05:05:45;;;;;;;12.13;9.95;;;;;;;13.55;67.78;96692.84;1644764;87;21165;-83
2021/04/29 05:08:13;;;;;;;15.13;10.25;;;;;;;13.69;67.29;96689.34;1645645;86;21195;-83
2021/04/29 05:10:40;;;;;;;15.50;9.43;;;;;;;13.81;66.99;96691.24;1665646;85;21214;-81
2021/04/29 05:13:07;;;;;;;17.20;9.45;;;;;;;13.82;66.61;96695.09;1690520;84;21586;-80
2021/04/29 05:15:36;;;;;;;12.73;10.43;;;;;;;13.86;66.41;96696.42;1687218;85;21202;-85
2021/04/29 05:18:05;;;;;;;14.10;9.88;;;;;;;14.01;66.37;96698.03;1687244;84;21151;-81
2021/04/29 05:20:34;;;;;;;17.07;10.50;;;;;;;14.17;65.68;96699.12;1697487;84;21132;-82
2021/04/29 05:23:03;;;;;;;14.13;10.65;;;;;;;14.30;65.40;96691.59;1715101;83;21147;-83
2021/04/29 05:25:30;;;;;;;15.00;10.90;;;;;;;14.47;65.01;96693.01;1708669;84;21146;-80
2021/04/29 05:28:03;;;;;;;23.73;11.10;;;;;;;14.65;64.78;96695.59;1716305;83;21194;-85
2021/04/29 05:30:30;;;;;;;15.93;10.28;;;;;;;14.86;64.56;96697.86;1701088;84;21139;-82
2021/04/29 05:32:58;;;;;;;18.23;11.38;;;;;;;15.44;64.54;96691.39;1689858;84;21146;-81
2021/04/29 05:35:26;;;;;;;15.28;10.13;;;;;;;15.97;63.62;96687.92;1691225;84;21676;-80
2021/04/29 05:37:53;;;;;;;19.60;9.48;;;;;;;16.35;62.47;96690.86;1702970;84;21163;-81
2021/04/29 05:40:21;;;;;;;20.32;10.65;;;;;;;16.60;61.83;96680.17;1711703;83;21131;-81
2021/04/29 05:42:48;;;;;;;20.32;10.70;;;;;;;16.84;61.26;96684.55;1704823;84;21179;-82
2021/04/29 05:45:15;;;;;;;16.15;10.23;;;;;;;17.05;60.45;96684.49;1684367;84;21171;-82
2021/04/29 05:47:43;;;;;;;18.00;10.93;;;;;;;17.25;60.07;96684.05;1687489;84;21127;-82
2021/04/29 05:50:11;;;;;;;20.72;10.03;;;;;;;17.41;59.37;96684.47;1698731;84;21152;-81
2021/04/29 05:52:39;;;;;;;17.48;11.00;;;;;;;17.54;59.06;96687.88;1698344;83;21154;-83
2021/04/29 05:55:09;;;;;;;22.55;11.00;;;;;;;17.62;58.47;96690.47;1705900;84;21159;-81
2021/04/29 05:57:37;;;;;;;18.70;10.15;;;;;;;17.68;58.05;96695.08;1711262;84;21170;-81
2021/04/29 06:00:07;;;;;;;15.05;10.40;;;;;;;17.78;57.92;96695.67;1714172;84;21607;-80
2021/04/29 06:02:43;;;;;;;13.20;8.43;;;;;;;17.86;57.29;96697.45;1712071;83;22094;-81
2021/04/29 06:05:11;;;;;;;19.42;9.55;;;;;;;17.84;57.20;96698.65;1685448;83;21170;-82
2021/04/29 06:07:39;;;;;;;26.65;16.75;;;;;;;17.86;56.85;96705.45;1701997;84;21143;-81
2021/04/29 06:10:08;;;;;;;12.78;9.95;;;;;;;17.77;56.03;96709.19;1699068;84;21156;-81
2021/04/29 06:12:35;;;;;;;17.85;9.43;;;;;;;17.74;56.05;96703.72;1728430;83;21159;-81
2021/04/29 06:15:05;;;;;;;15.50;9.70;;;;;;;17.84;55.78;96707.98;1719958;81;21131;-80
2021/04/29 06:17:32;;;;;;;14.98;9.50;;;;;;;17.82;55.88;96705.47;1731408;83;21580;-80
2021/04/29 06:20:00;;;;;;;21.00;8.50;;;;;;;17.88;55.76;96711.44;1731380;83;21123;-80
2021/04/29 06:22:27;;;;;;;13.13;8.73;;;;;;;18.00;55.38;96719.88;1731602;81;21616;-80
2021/04/29 06:24:54;;;;;;;17.27;8.80;;;;;;;18.08;55.08;96705.65;1717365;83;21132;-81
2021/04/29 06:27:21;;;;;;;12.53;9.78;;;;;;;18.35;54.37;96717.55;1702347;84;21179;-80
2021/04/29 06:29:48;;;;;;;13.25;8.73;;;;;;;18.32;54.09;96713.93;1715300;83;21128;-80
2021/04/29 06:32:16;;;;;;;6.67;5.92;;;;;;;18.36;54.05;96725.88;1704146;83;21282;-79
2021/04/29 06:34:45;;;;;;;13.03;8.98;;;;;;;18.42;53.27;96725.14;1715971;83;21123;-81
2021/04/29 06:37:13;;;;;;;10.72;7.58;;;;;;;18.07;52.83;96723.98;1710272;83;21606;-80
2021/04/29 06:39:42;;;;;;;12.98;9.33;;;;;;;17.78;53.62;96722.84;1727998;83;21123;-80
2021/04/29 06:42:10;;;;;;;16.37;8.65;;;;;;;17.88;54.06;96723.44;1718501;83;21588;-80
2021/04/29 06:44:37;;;;;;;15.38;8.48;;;;;;;18.06;53.31;96728.48;1730508;83;21131;-80
2021/04/29 06:47:05;;;;;;;17.48;9.50;;;;;;;18.10;53.48;96736.94;1731469;83;21577;-80
2021/04/29 06:49:33;;;;;;;10.70;7.45;;;;;;;18.28;53.43;96732.63;1724255;83;21221;-80
2021/04/29 06:52:01;;;;;;;16.50;8.60;;;;;;;18.50;52.72;96728.77;1725427;83;21123;-81
2021/04/29 06:54:28;;;;;;;13.90;9.33;;;;;;;18.49;52.32;96723.10;1723531;83;21172;-80
2021/04/29 06:56:58;;;;;;;12.63;8.70;;;;;;;18.19;52.46;96731.86;1719603;83;21167;-78
2021/04/29 06:59:26;;;;;;;12.00;8.78;;;;;;;18.04;52.63;96733.19;1731304;83;21159;-81
2021/04/29 07:01:53;;;;;;;10.18;8.68;;;;;;;18.13;53.05;96740.59;1711580;83;21172;-80
2021/04/29 07:04:22;;;;;;;18.55;9.18;;;;;;;18.29;52.86;96742.30;1705737;81;21253;-80
2021/04/29 07:06:49;;;;;;;10.30;7.97;;;;;;;18.46;52.59;96750.14;1717146;83;21160;-79
2021/04/29 07:09:16;;;;;;;28.92;10.00;;;;;;;18.36;51.23;96752.56;1724424;83;21143;-78
2021/04/29 07:11:43;;;;;;;20.05;9.88;;;;;;;18.04;51.71;96747.84;1722145;83;21167;-80
2021/04/29 07:14:11;;;;;;;18.23;13.68;;;;;;;17.98;51.01;96750.40;1721215;83;21116;-78
2021/04/29 07:16:38;;;;;;;23.47;15.43;;;;;;;17.78;51.26;96752.98;1715149;83;21162;-84
2021/04/29 07:19:05;;;;;;;33.63;15.45;;;;;;;17.55;51.39;96752.15;1719370;83;21139;-81
2021/04/29 07:21:32;;;;;;;27.93;13.80;;;;;;;17.44;52.31;96750.72;1722013;83;21160;-83
2021/04/29 07:24:00;;;;;;;25.97;15.38;;;;;;;17.56;52.27;96750.63;1706360;83;21147;-82
2021/04/29 07:26:27;;;;;;;17.07;11.60;;;;;;;17.69;51.77;96751.89;1714541;83;21194;-83
2021/04/29 07:28:54;;;;;;;23.85;13.03;;;;;;;17.71;51.89;96750.70;1718365;83;21139;-84
2021/04/29 07:31:22;;;;;;;16.05;10.95;;;;;;;17.66;51.76;96754.42;1722490;83;21177;-84
2021/04/29 07:33:51;;;;;;;16.73;9.85;;;;;;;17.52;51.61;96752.00;1719678;83;21764;-84
2021/04/29 07:36:21;;;;;;;21.00;12.82;;;;;;;17.59;51.59;96750.30;1709590;83;21152;-89
2021/04/29 07:38:49;;;;;;;20.45;13.18;;;;;;;17.44;51.85;96750.20;1717466;83;21120;-77
2021/04/29 07:41:19;;;;;;;20.17;14.33;;;;;;;17.45;50.58;96759.02;1723970;83;21172;-79
2021/04/29 07:43:46;;;;;;;16.10;12.80;;;;;;;17.62;51.30;96759.28;1723970;83;21132;-80
2021/04/29 07:46:13;;;;;;;22.32;12.55;;;;;;;17.73;51.27;96763.84;1704133;83;21144;-81
2021/04/29 07:48:40;;;;;;;26.60;12.03;;;;;;;17.78;51.62;96766.31;1724437;83;21167;-79
2021/04/29 07:51:07;;;;;;;19.12;12.20;;;;;;;17.88;51.29;96763.91;1703557;83;21636;-82
2021/04/29 07:53:35;;;;;;;14.95;10.70;;;;;;;17.69;50.60;96768.70;1695384;85;21155;-81
2021/04/29 07:56:02;;;;;;;21.52;12.33;;;;;;;17.54;50.74;96765.14;1716399;83;21155;-80
2021/04/29 07:58:30;;;;;;;13.32;8.70;;;;;;;17.41;51.28;96760.39;1722468;83;21207;-82
2021/04/29 08:00:57;;;;;;;21.75;10.23;;;;;;;17.32;51.25;96767.09;1724008;83;21301;-79
2021/04/29 08:03:24;;;;;;;15.98;8.18;;;;;;;17.15;51.42;96764.18;1724056;83;21148;-80
2021/04/29 08:05:52;;;;;;;14.85;7.92;;;;;;;17.08;51.55;96764.52;1714928;83;21618;-80
2021/04/29 08:08:19;;;;;;;18.73;10.98;;;;;;;17.08;51.86;96770.69;1723311;83;21557;-81
2021/04/29 08:10:47;;;;;;;10.60;7.70;;;;;;;17.07;51.73;96763.70;1723936;83;21132;-80
2021/04/29 08:13:14;;;;;;;17.40;12.40;;;;;;;17.22;51.22;96766.47;1712354;83;21175;-81
2021/04/29 08:15:43;;;;;;;15.08;8.53;;;;;;;17.12;51.64;96761.34;1708819;84;21172;-81
2021/04/29 08:18:11;;;;;;;11.50;7.90;;;;;;;17.18;51.47;96759.82;1691003;83;21144;-80
2021/04/29 08:20:40;;;;;;;16.87;10.60;;;;;;;17.40;51.59;96760.05;1666970;86;21162;-80
2021/04/29 08:23:07;;;;;;;13.65;9.63;;;;;;;17.47;51.33;96759.20;1700230;83;21607;-80
2021/04/29 08:25:35;;;;;;;12.43;9.80;;;;;;;17.54;50.87;96759.81;1705816;84;21189;-81
2021/04/29 08:28:04;;;;;;;9.68;7.50;;;;;;;17.82;51.22;96761.45;1708134;83;21149;-79
2021/04/29 08:30:31;;;;;;;18.52;10.25;;;;;;;18.12;49.69;96762.13;1696342;84;21177;-78
2021/04/29 08:33:01;;;;;;;15.98;9.53;;;;;;;18.20;50.22;96758.05;1688251;82;21597;-80
2021/04/29 08:35:29;;;;;;;21.95;8.23;;;;;;;18.48;49.72;96760.95;1687713;84;21586;-81
2021/04/29 08:37:57;;;;;;;12.73;9.50;;;;;;;18.83;49.53;96758.61;1698479;84;21181;-79
2021/04/29 08:40:29;;;;;;;13.83;8.73;;;;;;;18.78;48.90;96758.31;1696479;83;21552;-82
2021/04/29 08:42:55;;;;;;;10.43;9.13;;;;;;;18.74;48.35;96758.38;1683036;84;21629;-81
2021/04/29 08:45:23;;;;;;;12.50;9.60;;;;;;;18.68;48.21;96754.59;1690612;84;21144;-82
2021/04/29 08:47:54;;;;;;;12.30;8.95;;;;;;;18.66;48.41;96757.95;1692891;84;21128;-82
2021/04/29 08:50:26;;;;;;;14.90;10.98;;;;;;;18.78;48.43;96754.83;1701758;84;21120;-81
2021/04/29 08:52:53;;;;;;;19.57;11.33;;;;;;;18.94;47.23;96756.01;1709197;83;21129;-80
2021/04/29 08:55:27;;;;;;;11.33;5.45;;;;;;;18.89;47.34;96751.19;1678680;84;21132;-82
2021/04/29 08:57:57;;;;;;;17.98;11.93;;;;;;;18.87;47.18;96757.73;1704265;84;21205;-82
2021/04/29 09:00:24;;;;;;;13.32;9.28;;;;;;;18.55;48.41;96739.70;1708295;83;21570;-81
2021/04/29 09:02:55;;;;;;;16.62;10.03;;;;;;;18.62;48.08;96735.29;1710755;84;21165;-81
2021/04/29 09:05:34;;;;;;;11.05;7.95;;;;;;;18.72;47.42;96735.03;1707628;82;21156;-80
2021/04/29 09:08:06;;;;;;;15.95;9.83;;;;;;;18.82;47.34;96730.74;1706874;84;21132;-78
2021/04/29 09:10:40;;;;;;;12.03;7.40;;;;;;;18.80;47.99;96720.26;1705917;84;21149;-81
2021/04/29 09:13:20;;;;;;;13.48;8.68;;;;;;;18.70;47.57;96721.84;1710298;83;21164;-81
2021/04/29 09:15:50;;;;;;;15.70;9.23;;;;;;;18.42;48.16;96718.99;1710382;83;21162;-78
2021/04/29 09:18:20;;;;;;;11.38;7.17;;;;;;;18.37;48.38;96716.87;1705889;84;21165;-81
2021/04/29 09:20:55;;;;;;;14.25;8.28;;;;;;;18.49;48.16;96717.77;1709180;83;21594;-81
2021/04/29 09:23:27;;;;;;;13.35;7.95;;;;;;;18.51;48.33;96714.41;1691349;84;21140;-80
2021/04/29 09:26:06;;;;;;;13.28;8.35;;;;;;;18.36;48.30;96715.73;1710215;84;21127;-81
2021/04/29 09:28:47;;;;;;;11.48;8.50;;;;;;;18.39;48.78;96706.85;1686318;84;21128;-80
2021/04/29 09:31:19;;;;;;;14.23;8.60;;;;;;;18.60;48.27;96717.32;1693295;84;21172;-80
2021/04/29 09:33:52;;;;;;;12.60;8.70;;;;;;;18.63;48.08;96710.78;1692500;83;21125;-81
2021/04/29 09:36:29;;;;;;;12.33;7.90;;;;;;;18.68;47.75;96709.70;1706650;84;21134;-79
2021/04/29 09:39:05;;;;;;;12.10;8.08;;;;;;;18.76;47.32;96710.95;1690960;84;21145;-80
2021/04/29 09:41:48;;;;;;;12.03;7.62;;;;;;;18.79;47.29;96709.25;1695796;84;21155;-81
2021/04/29 09:44:19;;;;;;;15.80;7.75;;;;;;;19.01;47.64;96702.69;1706815;84;21457;-81
2021/04/29 09:47:03;;;;;;;6.45;5.10;;;;;;;19.16;47.09;96702.15;1680579;84;21172;-81
2021/04/29 09:49:35;;;;;;;11.40;7.55;;;;;;;18.95;46.63;96694.07;1701322;84;21171;-79
2021/04/29 09:52:13;;;;;;;9.50;6.20;;;;;;;18.46;47.09;96694.10;1687698;84;21121;-81
2021/04/29 09:54:49;;;;;;;;;;;;;;;18.22;48.32;96692.02;1810768;79;22949;-82
2021/04/29 09:57:25;;;;;;;12.80;8.85;;;;;;;18.15;48.83;96697.73;1763750;81;20438;-81
2021/04/29 09:59:59;;;;;;;;;;;;;;;18.25;48.94;96704.48;1771129;81;21138;-81
2021/04/29 10:02:29;;;;;;;12.65;9.45;;;;;;;18.49;48.50;96694.56;1769563;81;20137;-83
2021/04/29 10:04:57;;;;;;;8.75;6.00;;;;;;;18.83;48.80;96691.86;1756975;81;21222;-82
2021/04/29 10:07:24;;;;;;;9.33;6.72;;;;;;;19.15;48.08;96693.00;1735249;81;21578;-81
2021/04/29 10:09:52;;;;;;;11.65;8.93;;;;;;;18.96;47.34;96689.90;1730589;83;21619;-82
2021/04/29 10:12:25;;;;;;;15.40;8.85;;;;;;;18.53;48.13;96683.02;1736844;81;21155;-80
2021/04/29 10:14:53;;;;;;;17.02;11.50;;;;;;;18.47;48.76;96678.42;1735836;81;21155;-83
2021/04/29 10:17:22;;;;;;;16.23;10.08;;;;;;;18.53;48.93;96676.34;1736500;81;21104;-80
2021/04/29 10:19:56;;;;;;;12.40;9.00;;;;;;;18.61;48.93;96672.24;1744008;81;21159;-80
2021/04/29 10:22:25;;;;;;;13.45;9.33;;;;;;;18.65;48.92;96666.05;1732497;81;21151;-81
2021/04/29 10:24:53;;;;;;;16.27;8.43;;;;;;;18.75;48.99;96669.24;1730797;82;21610;-81
2021/04/29 10:27:29;;;;;;;11.93;7.70;;;;;;;18.81;48.32;96663.67;1730732;82;21128;-81
2021/04/29 10:30:12;;;;;;;10.58;9.03;;;;;;;18.92;48.45;96658.38;1744688;81;21110;-82
2021/04/29 10:32:40;;;;;;;7.95;5.85;;;;;;;18.94;48.61;96663.03;1727966;82;21208;-79
2021/04/29 10:35:19;;;;;;;10.28;6.28;;;;;;;19.06;48.70;96652.20;1739935;82;21553;-80
2021/04/29 10:38:03;;;;;;;13.30;7.55;;;;;;;19.15;48.58;96649.73;1752711;81;21132;-82
2021/04/29 10:40:39;;;;;;;9.05;6.62;;;;;;;19.11;48.16;96654.30;1745411;81;21587;-80
2021/04/29 10:43:09;;;;;;;10.10;6.42;;;;;;;18.89;48.41;96644.88;1757430;81;21116;-83
2021/04/29 10:45:36;;;;;;;14.47;9.80;;;;;;;18.90;48.42;96651.88;1754762;81;21112;-82
2021/04/29 10:48:11;;;;;;;10.93;7.83;;;;;;;18.81;48.82;96650.33;1736441;82;21129;-81
2021/04/29 10:50:47;;;;;;;13.18;9.18;;;;;;;18.91;48.82;96642.04;1739662;82;21301;-77
2021/04/29 10:53:32;;;;;;;11.03;7.33;;;;;;;19.01;48.75;96636.73;1732345;82;21646;-80
2021/04/29 10:56:13;;;;;;;12.88;8.43;;;;;;;19.07;48.75;96634.34;1675416;85;21210;-79
2021/04/29 10:58:42;;;;;;;12.43;8.50;;;;;;;19.06;48.46;96636.70;1692075;85;21162;-79
2021/04/29 11:01:20;;;;;;;16.90;8.43;;;;;;;19.07;48.62;96634.34;1693464;84;21659;-81
2021/04/29 11:03:51;;;;;;;13.55;8.28;;;;;;;19.13;48.59;96634.92;1678035;85;21138;-79
2021/04/29 11:06:30;;;;;;;10.10;6.47;;;;;;;19.13;48.38;96630.39;1679362;84;21146;-81
2021/04/29 11:08:58;;;;;;;12.68;7.17;;;;;;;19.19;48.28;96628.81;1679124;84;21212;-81
2021/04/29 11:11:36;;;;;;;9.38;7.03;;;;;;;19.21;48.34;96628.12;1664628;85;21167;-81
2021/04/29 11:14:17;;;;;;;14.13;7.85;;;;;;;19.27;48.19;96622.01;1694533;83;21161;-81
2021/04/29 11:16:55;;;;;;;12.18;6.97;;;;;;;19.45;48.27;96617.58;1674907;85;21156;-79
2021/04/29 11:19:55;;;;;;;12.68;8.00;;;;;;;19.52;47.67;96625.66;1693460;84;21149;-80
2021/04/29 11:22:34;;;;;;;11.40;8.15;;;;;;;19.31;47.99;96624.63;1648394;87;21176;-82
2021/04/29 11:25:03;;;;;;;12.65;7.87;;;;;;;19.24;48.25;96617.06;1681106;83;21586;-80
2021/04/29 11:27:34;;;;;;;11.05;5.65;;;;;;;19.27;48.25;96615.33;1659992;85;21573;-80
2021/04/29 11:30:07;;;;;;;14.43;6.97;;;;;;;19.30;48.19;96618.97;1703179;84;21192;-81
2021/04/29 11:32:37;;;;;;;8.45;5.55;;;;;;;19.26;48.37;96620.35;1684944;83;21156;-81
2021/04/29 11:35:21;;;;;;;12.63;6.78;;;;;;;19.42;48.23;96621.14;1704974;84;21153;-82
2021/04/29 11:37:49;;;;;;;12.58;7.03;;;;;;;19.40;47.74;96624.50;1706909;84;21122;-81
2021/04/29 11:40:17;;;;;;;14.03;7.55;;;;;;;19.42;47.83;96625.97;1702068;84;21149;-80